Time;durP1;ratioP1;P1;durP2;ratioP2;P2;SDS_P1;SDS_P2;PMS_P1;PMS_P2;Temp;Humidity;BMP_temperature;BMP_pressure;BME280_temperature;BME280_humidity;BME280_pressure;Samples;Min_cycle;Max_cycle;Signal;HPM_P1;HPM_P2
2024/01/31 00:00:24;;;;;;;6.53;1.05;;;6.20;99.90;;;;;;5051616;28;20408;-77
2024/01/31 00:02:49;;;;;;;6.65;1.33;;;6.20;99.90;;;;;;5042843;28;20475;-78
2024/01/31 00:05:15;;;;;;;7.40;0.98;;;6.10;99.90;;;;;;5016872;28;20033;-77
2024/01/31 00:07:44;;;;;;;5.65;0.95;;;6.20;99.90;;;;;;5034139;28;20045;-77
2024/01/31 00:10:11;;;;;;;4.07;0.90;;;6.10;99.90;;;;;;5030252;28;20652;-77
2024/01/31 00:12:36;;;;;;;5.72;0.95;;;6.00;99.90;;;;;;5028921;28;20514;-77
2024/01/31 00:15:02;;;;;;;6.35;1.10;;;6.00;99.90;;;;;;5028775;28;20045;-77
2024/01/31 00:17:28;;;;;;;9.43;1.20;;;6.10;99.90;;;;;;5017200;28;20038;-78
2024/01/31 00:19:53;;;;;;;6.00;1.00;;;6.10;99.90;;;;;;5025348;28;20068;-77
2024/01/31 00:22:19;;;;;;;8.38;1.30;;;6.10;99.90;;;;;;5038039;28;20043;-78
2024/01/31 00:24:45;;;;;;;4.57;1.40;;;6.00;99.90;;;;;;5032183;28;20116;-78
2024/01/31 00:27:10;;;;;;;12.10;1.42;;;6.10;99.90;;;;;;5015955;28;20033;-78
2024/01/31 00:29:36;;;;;;;4.57;1.10;;;6.10;99.90;;;;;;5036357;28;20033;-78
2024/01/31 00:32:02;;;;;;;6.32;0.80;;;6.10;99.90;;;;;;5027719;28;20037;-78
2024/01/31 00:34:29;;;;;;;8.48;1.00;;;6.10;99.90;;;;;;5032940;28;20383;-78
2024/01/31 00:36:54;;;;;;;6.65;1.02;;;6.10;99.90;;;;;;5032778;28;20072;-78
2024/01/31 00:39:20;;;;;;;7.18;1.13;;;6.00;99.90;;;;;;5016895;28;20038;-78
2024/01/31 00:41:47;;;;;;;6.38;1.10;;;6.00;99.90;;;;;;5045014;28;20033;-78
2024/01/31 00:44:13;;;;;;;6.88;1.45;;;6.00;99.90;;;;;;5033651;28;20465;-78
2024/01/31 00:46:44;;;;;;;7.72;1.48;;;6.00;99.90;;;;;;5032579;28;20041;-78
2024/01/31 00:49:10;;;;;;;7.20;1.40;;;6.00;99.90;;;;;;5033098;28;20045;-77
2024/01/31 00:51:36;;;;;;;3.95;1.05;;;6.10;99.90;;;;;;5026024;28;20279;-78
2024/01/31 00:54:01;;;;;;;5.13;1.00;;;5.90;99.90;;;;;;5031340;28;20045;-78
2024/01/31 00:56:27;;;;;;;4.18;0.93;;;5.90;99.90;;;;;;5018181;28;20169;-77
2024/01/31 00:58:52;;;;;;;4.65;0.90;;;5.90;99.90;;;;;;5053010;28;20255;-78
2024/01/31 01:01:18;;;;;;;6.13;0.93;;;5.90;99.90;;;;;;5053188;28;20504;-77
2024/01/31 01:03:44;;;;;;;6.60;1.02;;;5.80;99.90;;;;;;5034737;28;20541;-77
2024/01/31 01:06:10;;;;;;;6.55;1.20;;;5.90;99.90;;;;;;5035260;28;20037;-77
2024/01/31 01:08:35;;;;;;;4.55;0.93;;;5.90;99.90;;;;;;5052306;28;20037;-77
2024/01/31 01:11:01;;;;;;;4.57;0.93;;;5.90;99.90;;;;;;5036118;28;20044;-77
2024/01/31 01:13:26;;;;;;;3.88;0.80;;;5.90;99.90;;;;;;5034562;28;20040;-77
2024/01/31 01:15:52;;;;;;;4.93;1.40;;;5.90;99.90;;;;;;5050862;28;20033;-78
2024/01/31 01:18:18;;;;;;;5.10;1.35;;;5.90;99.90;;;;;;5052352;28;20037;-77
2024/01/31 01:20:44;;;;;;;8.25;1.30;;;5.90;99.90;;;;;;5051111;28;20123;-77
2024/01/31 01:23:11;;;;;;;7.43;1.17;;;5.90;99.90;;;;;;5030448;28;20120;-78
2024/01/31 01:25:37;;;;;;;6.05;0.82;;;5.90;99.90;;;;;;5032768;28;20043;-77
2024/01/31 01:28:03;;;;;;;7.53;0.82;;;5.90;99.90;;;;;;5033222;28;20029;-77
2024/01/31 01:30:28;;;;;;;8.65;1.05;;;5.90;99.90;;;;;;5051783;28;20039;-78
2024/01/31 01:32:54;;;;;;;6.15;0.98;;;5.90;99.90;;;;;;5050279;28;20095;-77
2024/01/31 01:35:19;;;;;;;7.07;1.00;;;5.90;99.90;;;;;;5052323;28;20043;-77
2024/01/31 01:37:45;;;;;;;10.63;1.40;;;5.90;99.90;;;;;;5035659;28;20075;-78
2024/01/31 01:40:11;;;;;;;7.75;1.15;;;5.90;99.90;;;;;;5035607;28;20033;-77
2024/01/31 01:42:38;;;;;;;6.70;0.80;;;5.90;99.90;;;;;;5051611;28;20025;-77
2024/01/31 01:45:04;;;;;;;8.25;1.13;;;5.90;99.90;;;;;;5034572;28;20036;-77
2024/01/31 01:47:30;;;;;;;7.43;1.13;;;5.90;99.90;;;;;;5052066;28;20083;-78
2024/01/31 01:49:55;;;;;;;9.10;1.75;;;5.80;99.90;;;;;;5035421;28;20485;-78
2024/01/31 01:52:21;;;;;;;6.78;1.15;;;5.80;99.90;;;;;;5051318;28;20039;-77
2024/01/31 01:54:47;;;;;;;6.45;0.85;;;5.80;99.90;;;;;;5034658;28;20049;-77
2024/01/31 01:57:13;;;;;;;5.00;0.85;;;5.90;99.90;;;;;;5051989;28;20037;-78
2024/01/31 01:59:41;;;;;;;5.25;1.00;;;5.80;99.90;;;;;;5039960;28;20053;-78
2024/01/31 02:02:07;;;;;;;7.03;0.90;;;5.90;99.90;;;;;;5000119;28;20490;-78
2024/01/31 02:04:34;;;;;;;6.13;1.23;;;5.80;99.90;;;;;;5030991;28;20033;-78
2024/01/31 02:07:00;;;;;;;6.45;0.93;;;5.90;99.90;;;;;;5031365;28;20246;-77
2024/01/31 02:09:26;;;;;;;5.97;1.00;;;5.90;99.90;;;;;;5032134;28;20041;-77
2024/01/31 02:11:52;;;;;;;7.57;0.90;;;5.90;99.90;;;;;;5014707;28;20490;-77
2024/01/31 02:14:18;;;;;;;3.47;0.57;;;5.90;99.90;;;;;;5030122;28;20044;-78
2024/01/31 02:16:46;;;;;;;6.57;1.23;;;5.90;99.90;;;;;;5013227;28;20041;-78
2024/01/31 02:19:12;;;;;;;2.58;0.60;;;5.90;99.90;;;;;;5015385;28;20036;-78
2024/01/31 02:21:41;;;;;;;6.70;0.90;;;5.80;99.90;;;;;;5029380;28;20037;-77
2024/01/31 02:24:07;;;;;;;5.03;0.88;;;5.80;99.90;;;;;;5009264;28;20037;-78
2024/01/31 02:26:32;;;;;;;3.08;0.70;;;5.80;99.90;;;;;;5006263;28;20079;-78
2024/01/31 02:28:58;;;;;;;3.95;0.98;;;5.80;99.90;;;;;;5014534;28;20041;-78
2024/01/31 02:31:24;;;;;;;4.60;0.88;;;5.80;99.90;;;;;;5012882;28;20051;-78
2024/01/31 02:33:49;;;;;;;6.00;1.33;;;5.80;99.90;;;;;;5012568;28;20677;-78
2024/01/31 02:36:15;;;;;;;4.60;0.88;;;5.80;99.90;;;;;;5040206;28;20041;-78
2024/01/31 02:38:40;;;;;;;7.03;0.85;;;5.80;99.90;;;;;;5046195;28;20402;-78
2024/01/31 02:41:07;;;;;;;5.20;0.80;;;5.70;99.90;;;;;;5030898;28;20406;-78
2024/01/31 02:43:33;;;;;;;5.82;0.80;;;5.90;99.90;;;;;;5031093;28;20048;-78
2024/01/31 02:45:59;;;;;;;3.40;0.68;;;5.80;99.90;;;;;;5008118;28;20041;-78
2024/01/31 02:48:24;;;;;;;6.55;0.63;;;5.70;99.90;;;;;;5011898;28;20053;-78
2024/01/31 02:50:50;;;;;;;6.97;0.90;;;5.60;99.90;;;;;;5014324;28;20418;-78
2024/01/31 02:53:15;;;;;;;5.10;0.80;;;5.70;99.90;;;;;;5014386;28;20122;-78
2024/01/31 02:55:41;;;;;;;3.60;0.80;;;5.60;99.90;;;;;;5014038;28;20041;-77
2024/01/31 02:58:07;;;;;;;5.72;0.80;;;5.60;99.90;;;;;;5029088;28;20038;-77
2024/01/31 03:00:33;;;;;;;3.17;0.70;;;5.60;99.90;;;;;;5049042;28;20076;-78
2024/01/31 03:02:58;;;;;;;6.57;1.17;;;5.60;99.90;;;;;;5025575;28;20041;-78
2024/01/31 03:05:24;;;;;;;6.57;1.13;;;5.60;99.90;;;;;;5031336;28;20053;-78
2024/01/31 03:07:49;;;;;;;7.65;1.02;;;5.60;99.90;;;;;;5025389;28;20035;-78
2024/01/31 03:10:15;;;;;;;2.28;0.75;;;5.50;99.90;;;;;;5015184;28;20037;-78
2024/01/31 03:12:41;;;;;;;4.05;1.10;;;5.50;99.90;;;;;;5006311;28;20037;-78
2024/01/31 03:15:07;;;;;;;3.13;0.73;;;5.60;99.90;;;;;;5015143;28;20038;-78
2024/01/31 03:17:35;;;;;;;7.60;1.30;;;5.60;99.90;;;;;;5033564;28;20041;-78
2024/01/31 03:20:05;;;;;;;5.53;1.05;;;5.50;99.90;;;;;;5037933;28;20040;-78
2024/01/31 03:22:31;;;;;;;3.75;0.90;;;5.60;99.90;;;;;;5042427;28;20048;-78
2024/01/31 03:24:57;;;;;;;6.05;0.80;;;5.50;99.90;;;;;;5034586;28;20505;-78
2024/01/31 03:27:22;;;;;;;4.25;0.95;;;5.70;99.90;;;;;;5016844;28;20052;-78
2024/01/31 03:29:48;;;;;;;5.65;0.90;;;5.60;99.90;;;;;;5034103;28;20048;-78
2024/01/31 03:32:13;;;;;;;5.68;0.88;;;5.50;99.90;;;;;;5017425;28;20044;-78
2024/01/31 03:34:39;;;;;;;3.90;0.90;;;5.50;99.90;;;;;;5034119;28;20037;-78
2024/01/31 03:37:05;;;;;;;4.95;0.90;;;5.50;99.90;;;;;;5017179;28;20042;-78
2024/01/31 03:39:32;;;;;;;6.03;1.02;;;5.50;99.90;;;;;;5037927;28;20037;-78
2024/01/31 03:41:58;;;;;;;6.22;0.93;;;5.50;99.90;;;;;;5041253;28;20482;-78
2024/01/31 03:44:23;;;;;;;4.80;0.93;;;5.50;99.90;;;;;;5024413;28;20041;-78
2024/01/31 03:46:49;;;;;;;3.47;0.90;;;5.40;99.90;;;;;;5027302;28;20100;-77
2024/01/31 03:49:15;;;;;;;4.07;0.82;;;5.40;99.90;;;;;;5044034;28;20091;-78
2024/01/31 03:51:40;;;;;;;6.53;1.10;;;5.30;99.90;;;;;;5027865;28;20091;-78
2024/01/31 03:54:06;;;;;;;6.18;1.00;;;5.30;99.90;;;;;;5028123;28;20034;-78
2024/01/31 03:56:32;;;;;;;4.03;0.77;;;5.40;99.90;;;;;;5009949;28;20034;-78
2024/01/31 03:58:57;;;;;;;3.88;0.80;;;5.50;99.90;;;;;;5014793;28;20053;-78
2024/01/31 04:01:23;;;;;;;4.60;0.50;;;5.40;99.90;;;;;;5017610;28;20042;-78
2024/01/31 04:03:49;;;;;;;4.78;0.80;;;5.50;99.90;;;;;;5013925;28;20041;-78
2024/01/31 04:06:14;;;;;;;3.50;0.70;;;5.40;99.90;;;;;;5027466;28;20041;-78
2024/01/31 04:08:40;;;;;;;3.85;0.82;;;5.40;99.90;;;;;;5020526;28;20547;-78
2024/01/31 04:11:06;;;;;;;4.15;0.63;;;5.30;99.90;;;;;;5037264;28;20040;-78
2024/01/31 04:13:31;;;;;;;2.47;0.70;;;5.30;99.90;;;;;;5016334;28;20515;-78
2024/01/31 04:16:00;;;;;;;2.38;0.55;;;5.10;99.90;;;;;;5015132;28;20410;-78
2024/01/31 04:18:25;;;;;;;5.18;0.70;;;5.10;99.90;;;;;;5016922;28;20034;-78
2024/01/31 04:20:51;;;;;;;3.92;0.85;;;5.10;99.90;;;;;;5048371;28;20493;-79
2024/01/31 04:23:17;;;;;;;5.63;0.77;;;5.00;99.90;;;;;;5016270;28;20124;-78
2024/01/31 04:25:43;;;;;;;5.10;0.57;;;5.00;99.90;;;;;;5016532;28;20478;-78
2024/01/31 04:28:08;;;;;;;1.75;0.52;;;5.00;99.90;;;;;;5033163;28;20031;-78
2024/01/31 04:30:34;;;;;;;4.97;0.60;;;4.90;99.90;;;;;;5053547;28;20068;-78
2024/01/31 04:33:00;;;;;;;3.53;0.60;;;4.90;99.90;;;;;;5032411;28;20073;-78
2024/01/31 04:35:27;;;;;;;4.38;0.68;;;5.00;99.90;;;;;;5015645;28;20482;-78
2024/01/31 04:37:52;;;;;;;5.75;0.80;;;5.00;99.90;;;;;;5017247;28;20375;-78
2024/01/31 04:40:18;;;;;;;3.15;0.50;;;4.90;99.90;;;;;;5050410;28;20045;-78
2024/01/31 04:42:45;;;;;;;4.72;0.80;;;4.90;99.90;;;;;;5026858;28;20068;-78
2024/01/31 04:45:10;;;;;;;5.85;0.95;;;4.90;99.90;;;;;;5033259;28;20051;-78
2024/01/31 04:47:37;;;;;;;3.25;0.93;;;4.90;99.90;;;;;;5032767;28;20120;-78
2024/01/31 04:50:02;;;;;;;4.28;0.52;;;4.80;99.90;;;;;;5042536;28;20113;-78
2024/01/31 04:52:28;;;;;;;4.00;0.50;;;4.90;99.90;;;;;;5028462;28;20467;-78
2024/01/31 04:54:55;;;;;;;3.55;0.55;;;4.80;99.90;;;;;;5016693;28;20048;-77
2024/01/31 04:57:21;;;;;;;3.53;0.55;;;4.70;99.90;;;;;;5015762;28;20033;-78
2024/01/31 04:59:46;;;;;;;4.20;0.52;;;4.70;99.90;;;;;;5032074;28;20045;-78
2024/01/31 05:02:12;;;;;;;2.60;0.60;;;4.70;99.90;;;;;;5032218;28;20120;-78
2024/01/31 05:04:39;;;;;;;3.60;2.08;;;4.60;99.90;;;;;;5016457;28;20072;-78
2024/01/31 05:07:05;;;;;;;1.58;0.43;;;4.60;99.90;;;;;;5015580;28;20405;-78
2024/01/31 05:09:31;;;;;;;2.08;0.63;;;4.60;99.90;;;;;;5015231;28;20128;-78
2024/01/31 05:11:56;;;;;;;1.58;0.60;;;4.60;99.90;;;;;;5015709;28;20088;-77
2024/01/31 05:14:22;;;;;;;3.03;0.57;;;4.60;99.90;;;;;;5032787;28;20396;-78
2024/01/31 05:16:48;;;;;;;1.40;0.43;;;4.60;99.90;;;;;;5010658;28;20034;-78
2024/01/31 05:19:14;;;;;;;1.77;0.50;;;4.60;99.90;;;;;;5018320;28;20057;-78
2024/01/31 05:21:50;;;;;;;2.95;0.50;;;4.60;99.90;;;;;;5028699;28;20036;-77
2024/01/31 05:24:17;;;;;;;1.25;0.40;;;4.50;99.90;;;;;;5030121;28;20048;-77
2024/01/31 05:26:45;;;;;;;3.60;0.40;;;4.40;99.90;;;;;;5031683;28;20087;-78
2024/01/31 05:29:11;;;;;;;2.75;0.47;;;4.40;99.90;;;;;;5012763;28;20048;-78
2024/01/31 05:31:37;;;;;;;2.38;0.50;;;4.30;99.90;;;;;;5014966;28;20045;-78
2024/01/31 05:34:03;;;;;;;2.40;0.52;;;4.30;99.90;;;;;;4996607;28;20035;-78
2024/01/31 05:36:29;;;;;;;5.47;0.82;;;4.30;99.90;;;;;;4999247;28;20120;-78
2024/01/31 05:38:55;;;;;;;5.32;0.73;;;4.40;99.90;;;;;;5015410;28;20133;-78
2024/01/31 05:41:20;;;;;;;2.28;0.65;;;4.50;99.90;;;;;;5030116;28;20541;-78
2024/01/31 05:43:46;;;;;;;2.55;0.60;;;4.50;99.90;;;;;;5014452;28;20129;-77
2024/01/31 05:46:18;;;;;;;2.90;0.63;;;4.60;99.90;;;;;;5015325;28;20520;-78
2024/01/31 05:48:47;;;;;;;2.35;0.60;;;4.60;99.90;;;;;;5015045;28;20129;-78
2024/01/31 05:51:14;;;;;;;1.20;0.50;;;4.60;99.90;;;;;;5014798;28;20064;-78
2024/01/31 05:53:40;;;;;;;3.17;0.80;;;4.60;99.90;;;;;;5029886;28;20083;-78
2024/01/31 05:56:06;;;;;;;1.77;0.65;;;4.60;99.90;;;;;;5014296;28;20048;-78
2024/01/31 05:58:31;;;;;;;3.83;0.60;;;4.70;99.90;;;;;;5017068;28;20033;-77
2024/01/31 06:00:57;;;;;;;2.75;0.60;;;4.70;99.90;;;;;;5053225;28;20044;-78
2024/01/31 06:03:24;;;;;;;2.83;0.50;;;4.80;99.90;;;;;;5054241;28;20037;-78
2024/01/31 06:05:51;;;;;;;3.17;1.23;;;4.90;99.90;;;;;;5057755;28;20051;-78
2024/01/31 06:08:18;;;;;;;5.55;1.10;;;4.70;99.90;;;;;;5050363;28;20465;-78
2024/01/31 06:10:46;;;;;;;4.63;0.70;;;4.70;99.90;;;;;;5038811;28;20449;-78
2024/01/31 06:13:11;;;;;;;2.67;0.60;;;4.70;99.90;;;;;;5036580;28;20083;-78
2024/01/31 06:15:37;;;;;;;3.80;0.60;;;4.70;99.90;;;;;;5046640;28;20068;-78
2024/01/31 06:18:03;;;;;;;3.70;1.00;;;4.70;99.90;;;;;;5040704;28;20116;-78
2024/01/31 06:20:28;;;;;;;4.45;0.57;;;4.80;99.90;;;;;;5055331;28;20119;-77
2024/01/31 06:22:54;;;;;;;5.10;1.00;;;4.70;99.90;;;;;;5053284;28;20101;-78
2024/01/31 06:25:20;;;;;;;4.93;0.60;;;4.70;99.90;;;;;;5053868;28;20377;-78
2024/01/31 06:27:46;;;;;;;2.13;0.70;;;4.80;99.90;;;;;;5039433;28;20515;-78
2024/01/31 06:30:19;;;;;;;4.88;0.68;;;4.80;99.90;;;;;;5054400;28;20041;-78
2024/01/31 06:32:47;;;;;;;7.40;1.17;;;4.70;99.90;;;;;;5053222;28;20180;-77
2024/01/31 06:35:14;;;;;;;4.05;0.80;;;4.70;99.90;;;;;;5053952;28;20040;-78
2024/01/31 06:37:40;;;;;;;5.35;0.90;;;4.80;99.90;;;;;;5038339;28;20059;-78
2024/01/31 06:40:08;;;;;;;3.30;0.70;;;4.70;99.90;;;;;;5038320;28;20439;-77
2024/01/31 06:42:33;;;;;;;4.22;0.80;;;4.70;99.90;;;;;;5035745;28;20040;-78
2024/01/31 06:44:59;;;;;;;7.43;0.90;;;4.70;99.90;;;;;;5062487;28;20547;-77
2024/01/31 06:47:25;;;;;;;3.95;0.90;;;4.70;99.90;;;;;;5027661;28;20149;-78
2024/01/31 06:49:50;;;;;;;7.20;1.00;;;4.80;99.90;;;;;;5039772;28;20066;-78
2024/01/31 06:52:16;;;;;;;6.88;1.20;;;4.60;99.90;;;;;;5024909;28;20130;-78
2024/01/31 06:54:42;;;;;;;8.02;0.95;;;4.70;99.90;;;;;;5036404;28;20117;-78
2024/01/31 06:57:07;;;;;;;5.45;0.98;;;4.60;99.90;;;;;;5043624;28;20036;-77
2024/01/31 06:59:33;;;;;;;5.18;1.20;;;4.60;99.90;;;;;;5052635;28;20057;-79
2024/01/31 07:01:58;;;;;;;4.45;1.20;;;4.70;99.90;;;;;;5035759;28;20040;-78
2024/01/31 07:04:24;;;;;;;6.22;1.33;;;4.70;99.90;;;;;;5039997;28;20043;-79
2024/01/31 07:06:49;;;;;;;5.97;1.00;;;4.80;99.90;;;;;;5038227;28;20405;-79
2024/01/31 07:09:15;;;;;;;2.78;0.90;;;4.80;99.90;;;;;;5039605;28;20045;-78
2024/01/31 07:11:41;;;;;;;6.28;1.10;;;4.80;99.90;;;;;;5017771;28;20046;-78
2024/01/31 07:14:07;;;;;;;4.38;1.25;;;4.90;99.90;;;;;;5020456;28;20432;-78
2024/01/31 07:16:35;;;;;;;5.80;1.20;;;4.80;99.90;;;;;;5037830;28;20127;-78
2024/01/31 07:19:01;;;;;;;7.22;0.88;;;4.80;99.90;;;;;;5025293;28;20460;-78
2024/01/31 07:21:26;;;;;;;5.95;0.95;;;4.80;99.90;;;;;;5021049;28;20073;-78
2024/01/31 07:23:52;;;;;;;7.38;1.50;;;4.90;99.90;;;;;;5036138;28;20108;-78
2024/01/31 07:26:26;;;;;;;3.85;0.82;;;4.90;99.90;;;;;;5043606;28;20504;-78
2024/01/31 07:28:52;;;;;;;6.05;1.10;;;4.90;99.90;;;;;;5054896;28;20500;-78
2024/01/31 07:31:18;;;;;;;7.50;1.55;;;4.90;99.90;;;;;;5034967;28;20535;-78
2024/01/31 07:33:44;;;;;;;3.55;1.00;;;4.90;99.90;;;;;;5030447;28;20045;-78
2024/01/31 07:36:10;;;;;;;5.20;1.00;;;4.90;99.90;;;;;;5053461;28;20041;-78
2024/01/31 07:38:36;;;;;;;6.45;1.25;;;4.90;99.90;;;;;;5038310;28;20047;-79
2024/01/31 07:41:02;;;;;;;5.47;1.35;;;4.90;99.90;;;;;;5016706;28;20036;-78
2024/01/31 07:43:27;;;;;;;7.50;1.30;;;5.00;99.90;;;;;;5034030;28;20033;-78
2024/01/31 07:45:53;;;;;;;8.18;1.10;;;5.20;99.90;;;;;;5049305;28;20036;-78
2024/01/31 07:48:19;;;;;;;5.25;0.93;;;5.30;99.90;;;;;;5048956;28;20044;-75
2024/01/31 07:50:45;;;;;;;3.97;1.52;;;5.30;99.90;;;;;;5071357;28;20400;-78
2024/01/31 07:53:11;;;;;;;3.92;1.00;;;5.40;99.90;;;;;;5037849;28;20071;-82
2024/01/31 07:55:37;;;;;;;5.75;1.05;;;5.40;99.90;;;;;;5039947;28;20068;-81
2024/01/31 07:58:03;;;;;;;7.45;2.20;;;5.40;99.90;;;;;;5056848;28;20093;-82
2024/01/31 08:00:29;;;;;;;6.00;1.17;;;5.40;99.90;;;;;;5056774;28;20052;-82
2024/01/31 08:02:54;;;;;;;4.57;1.08;;;5.40;99.90;;;;;;5040735;28;20502;-82
2024/01/31 08:05:20;;;;;;;7.82;1.20;;;5.50;99.90;;;;;;5040376;28;20044;-82
2024/01/31 08:07:46;;;;;;;6.25;1.30;;;5.50;99.90;;;;;;5057066;28;20044;-82
2024/01/31 08:10:12;;;;;;;6.32;1.25;;;5.50;99.90;;;;;;5057465;28;20040;-82
2024/01/31 08:12:40;;;;;;;5.50;1.13;;;5.50;99.90;;;;;;5040625;28;20094;-81
2024/01/31 08:15:06;;;;;;;5.68;1.20;;;5.50;99.90;;;;;;5057081;28;20044;-82
2024/01/31 08:17:31;;;;;;;5.90;1.52;;;5.50;99.90;;;;;;5039197;28;20040;-82
2024/01/31 08:19:57;;;;;;;6.25;1.08;;;5.50;99.90;;;;;;5073429;28;20139;-82
2024/01/31 08:22:22;;;;;;;5.78;1.83;;;5.60;99.90;;;;;;5057363;28;20079;-82
2024/01/31 08:24:49;;;;;;;7.35;1.23;;;5.60;99.90;;;;;;5056868;28;20485;-81
2024/01/31 08:27:15;;;;;;;6.60;1.50;;;5.60;99.90;;;;;;5057256;28;20404;-81
2024/01/31 08:29:41;;;;;;;5.55;1.00;;;5.60;99.90;;;;;;5053392;28;20512;-82
2024/01/31 08:32:06;;;;;;;5.85;1.08;;;5.60;99.90;;;;;;5073801;28;20053;-81
2024/01/31 08:34:32;;;;;;;4.80;1.25;;;5.60;99.90;;;;;;5040318;28;20080;-82
2024/01/31 08:36:58;;;;;;;5.68;1.20;;;5.60;99.90;;;;;;5052733;28;20033;-82
2024/01/31 08:39:23;;;;;;;5.60;1.55;;;5.60;99.90;;;;;;5055987;28;20044;-82
2024/01/31 08:41:49;;;;;;;6.72;1.45;;;5.60;99.90;;;;;;5040075;28;20037;-81
2024/01/31 08:44:15;;;;;;;7.90;1.65;;;5.60;99.90;;;;;;5040214;28;20370;-82
2024/01/31 08:46:41;;;;;;;6.70;1.98;;;5.60;99.90;;;;;;5056892;28;20504;-82
2024/01/31 08:49:06;;;;;;;4.15;1.50;;;5.60;99.90;;;;;;5038565;28;20044;-81
2024/01/31 08:51:33;;;;;;;6.30;2.20;;;5.70;99.90;;;;;;5039714;28;20036;-81
2024/01/31 08:53:59;;;;;;;6.05;1.88;;;5.70;99.90;;;;;;5056359;28;20070;-81
2024/01/31 08:56:25;;;;;;;8.73;2.17;;;5.60;99.90;;;;;;5056505;28;20046;-82
2024/01/31 08:58:50;;;;;;;4.63;1.98;;;5.70;99.90;;;;;;5035252;28;20053;-81
2024/01/31 09:01:16;;;;;;;8.60;2.38;;;5.70;99.90;;;;;;5055867;28;20053;-81
2024/01/31 09:03:41;;;;;;;6.32;2.15;;;5.70;99.90;;;;;;5073230;28;20063;-81
2024/01/31 09:06:07;;;;;;;6.40;2.30;;;5.80;99.90;;;;;;5039644;28;20484;-81
2024/01/31 09:08:33;;;;;;;6.25;2.38;;;5.80;99.90;;;;;;5071529;28;20055;-81
2024/01/31 09:10:58;;;;;;;9.48;2.78;;;5.80;99.90;;;;;;5068513;28;20124;-81
2024/01/31 09:13:24;;;;;;;7.07;2.92;;;5.80;99.90;;;;;;5036388;28;20497;-81
2024/01/31 09:15:50;;;;;;;7.13;2.85;;;5.90;99.90;;;;;;5036079;28;20045;-81
2024/01/31 09:18:16;;;;;;;8.10;2.50;;;5.80;99.90;;;;;;5035722;28;20497;-81
2024/01/31 09:20:41;;;;;;;8.20;3.17;;;5.90;99.90;;;;;;5052637;28;20040;-81
2024/01/31 09:23:07;;;;;;;5.65;2.65;;;6.00;99.90;;;;;;5055291;28;20052;-81
2024/01/31 09:25:33;;;;;;;7.70;3.28;;;6.00;99.90;;;;;;5056057;28;20045;-81
2024/01/31 09:27:59;;;;;;;9.30;2.92;;;6.00;99.90;;;;;;5038999;28;20568;-81
2024/01/31 09:30:24;;;;;;;4.78;2.40;;;6.00;99.90;;;;;;5034202;28;20110;-81
2024/01/31 09:32:50;;;;;;;4.57;2.22;;;6.10;99.90;;;;;;5055606;28;20054;-81
2024/01/31 09:35:16;;;;;;;5.70;2.38;;;6.10;99.90;;;;;;5055806;28;20047;-81
2024/01/31 09:37:41;;;;;;;6.82;2.33;;;6.20;99.90;;;;;;5055517;28;20123;-81
2024/01/31 09:40:08;;;;;;;4.57;2.15;;;6.20;99.90;;;;;;5037574;28;20036;-81
2024/01/31 09:42:33;;;;;;;4.32;2.30;;;6.30;99.90;;;;;;5038879;28;20116;-80
2024/01/31 09:45:01;;;;;;;6.75;2.90;;;6.30;99.90;;;;;;5055269;28;20083;-81
2024/01/31 09:47:28;;;;;;;8.10;2.80;;;6.30;99.90;;;;;;5038841;28;20048;-80
2024/01/31 09:49:57;;;;;;;6.50;3.10;;;6.30;99.90;;;;;;5038262;28;20048;-81
2024/01/31 09:52:29;;;;;;;10.23;3.40;;;6.40;99.90;;;;;;5055246;28;20124;-81
2024/01/31 09:54:58;;;;;;;9.50;3.10;;;6.30;99.90;;;;;;5038573;28;20044;-81
2024/01/31 09:57:24;;;;;;;7.85;3.13;;;6.30;99.90;;;;;;5038670;28;20037;-81
2024/01/31 09:59:51;;;;;;;7.47;3.17;;;6.40;99.90;;;;;;5034398;28;20102;-80
2024/01/31 10:02:17;;;;;;;8.00;3.90;;;6.40;99.90;;;;;;5051976;28;20516;-80
2024/01/31 10:04:49;;;;;;;7.55;3.50;;;6.50;99.90;;;;;;5054958;28;20036;-81
2024/01/31 10:07:22;;;;;;;7.10;3.42;;;6.40;99.90;;;;;;5038439;28;20059;-81
2024/01/31 10:09:49;;;;;;;8.43;4.28;;;6.40;99.90;;;;;;5054123;28;20048;-80
2024/01/31 10:12:17;;;;;;;6.35;3.42;;;6.30;99.90;;;;;;5055172;28;20525;-81
2024/01/31 10:14:43;;;;;;;6.82;3.63;;;6.50;99.90;;;;;;5038222;28;20127;-81
2024/01/31 10:17:09;;;;;;;7.30;3.20;;;6.50;99.90;;;;;;5055117;28;20378;-81
2024/01/31 10:19:35;;;;;;;5.57;2.92;;;6.50;99.90;;;;;;5038689;28;20043;-80
2024/01/31 10:22:00;;;;;;;8.80;4.05;;;6.60;99.90;;;;;;5073148;28;20123;-81
2024/01/31 10:24:26;;;;;;;8.70;4.25;;;6.60;99.90;;;;;;5056488;28;20025;-81
2024/01/31 10:26:52;;;;;;;7.40;3.03;;;6.50;99.90;;;;;;5058540;28;20451;-81
2024/01/31 10:29:18;;;;;;;4.30;2.13;;;6.60;99.90;;;;;;5045278;28;20133;-80
2024/01/31 10:31:46;;;;;;;5.65;2.95;;;6.60;99.90;;;;;;5060223;28;20032;-80
2024/01/31 10:34:13;;;;;;;6.55;3.42;;;6.70;99.90;;;;;;5061155;28;20036;-80
2024/01/31 10:36:42;;;;;;;7.65;3.50;;;6.70;99.90;;;;;;5059976;28;20045;-80
2024/01/31 10:39:11;;;;;;;5.97;2.72;;;6.70;99.90;;;;;;5044798;28;20625;-80
2024/01/31 10:41:40;;;;;;;7.82;2.78;;;6.80;99.90;;;;;;5044900;28;20034;-80
2024/01/31 10:44:13;;;;;;;6.68;2.72;;;6.90;99.90;;;;;;5060653;28;20044;-80
2024/01/31 10:46:39;;;;;;;;;;;6.80;99.90;;;;;;5045163;28;20090;-80
2024/01/31 10:49:05;;;;;;;7.32;2.63;;;6.80;99.90;;;;;;5061511;28;19926;-80
2024/01/31 10:51:32;;;;;;;6.13;3.03;;;6.80;99.90;;;;;;5061354;28;20044;-80
2024/01/31 10:53:59;;;;;;;7.97;3.53;;;6.80;99.90;;;;;;5044282;28;20032;-80
2024/01/31 10:56:25;;;;;;;6.28;2.92;;;6.80;99.90;;;;;;5060810;28;20041;-80
2024/01/31 10:58:51;;;;;;;7.35;3.05;;;6.80;99.90;;;;;;5061340;28;20047;-80
2024/01/31 11:01:17;;;;;;;5.13;2.78;;;6.80;99.90;;;;;;5045010;28;20400;-80
2024/01/31 11:03:45;;;;;;;6.82;3.60;;;6.80;99.90;;;;;;5060339;28;20033;-80
2024/01/31 11:06:11;;;;;;;6.82;2.88;;;6.80;99.90;;;;;;5044268;28;20123;-80
2024/01/31 11:08:41;;;;;;;6.72;2.88;;;6.90;99.90;;;;;;5044635;28;20424;-80
2024/01/31 11:11:11;;;;;;;9.05;3.63;;;6.90;99.90;;;;;;5061298;28;20051;-80
2024/01/31 11:13:36;;;;;;;8.77;3.70;;;7.00;99.90;;;;;;5043832;28;20051;-80
2024/01/31 11:16:04;;;;;;;7.60;3.53;;;6.90;99.90;;;;;;5073695;28;20036;-80
2024/01/31 11:18:30;;;;;;;12.45;3.88;;;6.90;99.90;;;;;;5071434;28;20044;-79
2024/01/31 11:20:56;;;;;;;6.75;3.63;;;7.00;99.90;;;;;;5073447;28;20365;-80
2024/01/31 11:23:25;;;;;;;4.85;2.38;;;7.00;99.90;;;;;;5044511;28;20503;-80
2024/01/31 11:25:52;;;;;;;3.03;1.63;;;7.00;99.90;;;;;;5043474;28;20032;-80
2024/01/31 11:28:18;;;;;;;5.53;2.92;;;7.00;99.90;;;;;;5044277;28;20063;-80
2024/01/31 11:30:51;;;;;;;6.80;3.50;;;7.00;99.90;;;;;;5045167;28;20150;-79
2024/01/31 11:33:17;;;;;;;7.75;4.03;;;7.00;99.90;;;;;;5057119;28;20071;-80
2024/01/31 11:35:43;;;;;;;5.80;2.45;;;7.00;99.90;;;;;;5069988;28;20028;-80
2024/01/31 11:38:09;;;;;;;9.68;4.00;;;6.90;99.90;;;;;;5040078;28;20097;-80
2024/01/31 11:40:34;;;;;;;5.80;3.28;;;7.00;99.90;;;;;;5057679;28;20047;-79
2024/01/31 11:43:03;;;;;;;7.40;4.00;;;7.10;99.90;;;;;;5041183;28;20040;-79
2024/01/31 11:45:29;;;;;;;6.10;3.28;;;7.00;99.90;;;;;;5054124;28;20393;-79
2024/01/31 11:47:55;;;;;;;6.25;3.55;;;7.10;99.90;;;;;;5064945;28;20043;-80
2024/01/31 11:50:25;;;;;;;6.68;3.88;;;7.00;99.90;;;;;;5051831;28;20045;-80
2024/01/31 11:52:51;;;;;;;5.65;2.75;;;7.00;99.90;;;;;;5030652;28;20059;-79
2024/01/31 11:55:25;;;;;;;6.70;3.17;;;7.10;99.90;;;;;;5052971;28;20063;-80
2024/01/31 11:57:51;;;;;;;6.30;2.90;;;7.10;99.90;;;;;;5050287;28;20063;-79
2024/01/31 12:00:18;;;;;;;5.82;3.05;;;7.10;99.90;;;;;;5040651;28;20382;-80
2024/01/31 12:02:47;;;;;;;5.78;3.30;;;7.10;99.90;;;;;;5039633;28;20500;-80
2024/01/31 12:05:13;;;;;;;7.05;4.35;;;7.10;99.90;;;;;;5037138;28;20073;-80
2024/01/31 12:07:39;;;;;;;6.93;4.10;;;7.00;99.90;;;;;;5056857;28;20071;-80
2024/01/31 12:10:08;;;;;;;7.05;3.75;;;7.00;99.90;;;;;;5038654;28;20045;-80
2024/01/31 12:12:41;;;;;;;10.30;4.60;;;7.10;99.90;;;;;;5040442;28;20044;-79
2024/01/31 12:15:11;;;;;;;6.80;4.00;;;7.10;99.90;;;;;;5035432;28;20493;-80
2024/01/31 12:17:38;;;;;;;8.00;4.85;;;7.10;99.90;;;;;;5070708;28;20028;-79
2024/01/31 12:20:08;;;;;;;5.15;2.63;;;7.00;99.90;;;;;;5046129;28;20123;-80
2024/01/31 12:22:34;;;;;;;9.93;6.25;;;7.10;99.90;;;;;;5040223;28;20041;-80
2024/01/31 12:25:03;;;;;;;8.25;4.50;;;7.00;99.90;;;;;;5057005;28;20037;-79
2024/01/31 12:27:29;;;;;;;10.00;6.32;;;7.00;99.90;;;;;;5033806;28;20047;-80
2024/01/31 12:29:54;;;;;;;10.77;5.05;;;7.00;99.90;;;;;;5056955;28;20044;-79
2024/01/31 12:32:20;;;;;;;7.20;4.55;;;7.00;99.90;;;;;;5056087;28;20040;-79
2024/01/31 12:34:46;;;;;;;10.05;7.38;;;7.00;99.90;;;;;;5028264;28;20041;-80
2024/01/31 12:37:11;;;;;;;10.32;5.80;;;6.90;99.90;;;;;;5055831;28;20116;-80
2024/01/31 12:39:37;;;;;;;8.52;5.63;;;6.90;99.90;;;;;;5058846;28;20481;-79
2024/01/31 12:42:03;;;;;;;8.40;4.40;;;7.00;99.90;;;;;;5046951;28;20516;-79
2024/01/31 12:44:29;;;;;;;6.97;4.30;;;7.20;99.90;;;;;;5054018;28;20043;-79
2024/01/31 12:46:55;;;;;;;8.98;5.15;;;7.20;99.90;;;;;;5072368;28;20492;-79
2024/01/31 12:49:21;;;;;;;6.47;3.65;;;7.10;99.90;;;;;;5055709;28;20051;-79
2024/01/31 12:51:48;;;;;;;10.60;5.30;;;7.20;99.90;;;;;;5056233;28;20059;-79